createdAt,value
2022-09-12T00:00:14.419Z,13.30
2022-09-12T00:01:14.480Z,12.30
2022-09-12T00:02:14.437Z,15.10
2022-09-12T00:03:14.395Z,18.30
2022-09-12T00:04:14.391Z,15.00
2022-09-12T00:05:14.385Z,14.50
2022-09-12T00:06:14.365Z,12.70
2022-09-12T00:07:14.364Z,14.20
2022-09-12T00:08:14.351Z,16.40
2022-09-12T00:09:14.340Z,20.40
2022-09-12T00:10:14.347Z,16.20
2022-09-12T00:11:14.347Z,17.30
2022-09-12T00:12:14.343Z,33.60
2022-09-12T00:13:14.319Z,50.40
2022-09-12T00:14:14.309Z,40.90
2022-09-12T00:15:14.307Z,53.50
2022-09-12T00:16:14.364Z,39.10
2022-09-12T00:17:14.306Z,35.60
2022-09-12T00:18:14.282Z,33.60
2022-09-12T00:19:14.263Z,43.10
2022-09-12T00:20:14.251Z,38.30
2022-09-12T00:21:14.242Z,77.40
2022-09-12T00:22:14.247Z,28.70
2022-09-12T00:23:14.249Z,156.40
2022-09-12T00:24:14.239Z,102.00
2022-09-12T00:25:14.221Z,165.00
2022-09-12T00:26:14.216Z,80.60
2022-09-12T00:27:14.196Z,86.30
2022-09-12T00:28:14.197Z,55.30
2022-09-12T00:29:14.200Z,112.10
2022-09-12T00:30:14.181Z,27.30
2022-09-12T00:31:14.236Z,22.90
2022-09-12T00:32:14.161Z,30.80
2022-09-12T00:33:14.155Z,40.50
2022-09-12T00:34:14.142Z,38.70
2022-09-12T00:35:14.218Z,65.80
2022-09-12T00:36:14.131Z,60.40
2022-09-12T00:37:14.124Z,32.30
2022-09-12T00:38:14.110Z,46.20
2022-09-12T00:39:14.112Z,27.60
2022-09-12T00:40:14.138Z,123.50
2022-09-12T00:41:14.118Z,112.50
2022-09-12T00:42:14.085Z,134.00
2022-09-12T00:43:14.066Z,222.80
2022-09-12T00:44:14.057Z,152.30
2022-09-12T00:45:14.048Z,147.40
2022-09-12T00:46:14.044Z,147.70
2022-09-12T00:47:14.062Z,129.90
2022-09-12T00:48:14.036Z,151.80
2022-09-12T00:49:14.018Z,260.50
2022-09-12T00:50:14.018Z,272.50
2022-09-12T00:51:14.005Z,133.70
2022-09-12T00:52:13.997Z,73.20
2022-09-12T00:53:14.005Z,88.60
2022-09-12T00:54:13.987Z,133.20
2022-09-12T00:55:13.977Z,190.90
2022-09-12T00:56:13.973Z,28.60
2022-09-12T00:57:13.964Z,17.50
2022-09-12T00:58:13.954Z,29.10
2022-09-12T00:59:13.960Z,13.00
2022-09-12T01:00:13.951Z,13.50
2022-09-12T01:01:14.053Z,16.20
2022-09-12T01:02:13.975Z,15.90
2022-09-12T01:03:13.909Z,10.30
2022-09-12T01:04:13.931Z,10.60
2022-09-12T01:05:13.900Z,11.70
2022-09-12T01:06:13.889Z,44.90
2022-09-12T01:07:13.884Z,21.20
2022-09-12T01:08:13.872Z,18.00
2022-09-12T01:09:13.862Z,56.50
2022-09-12T01:10:13.885Z,29.00
2022-09-12T01:11:13.849Z,8.40
2022-09-12T01:12:13.847Z,9.10
2022-09-12T01:13:13.832Z,10.20
2022-09-12T01:14:13.827Z,9.10
2022-09-12T01:15:13.826Z,8.10
2022-09-12T01:16:13.854Z,7.20
2022-09-12T01:17:13.791Z,8.10
2022-09-12T01:18:13.804Z,11.20
2022-09-12T01:19:13.798Z,8.70
2022-09-12T01:20:13.785Z,7.70
2022-09-12T01:21:13.774Z,7.60
2022-09-12T01:22:13.786Z,10.20
2022-09-12T01:23:13.751Z,7.30
2022-09-12T01:24:13.744Z,8.10
2022-09-12T01:25:13.739Z,6.50
2022-09-12T01:26:13.727Z,6.90
2022-09-12T01:27:13.722Z,6.20
2022-09-12T01:28:13.738Z,7.30
2022-09-12T01:29:13.701Z,6.40
2022-09-12T01:30:13.702Z,6.50
2022-09-12T01:31:13.706Z,10.30
2022-09-12T01:32:13.710Z,14.00
2022-09-12T01:33:13.669Z,28.70
2022-09-12T01:34:13.665Z,25.30
2022-09-12T01:35:13.658Z,26.00
2022-09-12T01:36:13.650Z,18.00
2022-09-12T01:37:13.666Z,8.00
2022-09-12T01:38:13.642Z,8.50
2022-09-12T01:39:13.632Z,8.30
2022-09-12T01:40:13.652Z,12.20
2022-09-12T01:41:13.617Z,8.80
2022-09-12T01:42:13.607Z,16.00
2022-09-12T01:43:13.614Z,8.50
2022-09-12T01:44:13.620Z,17.00
2022-09-12T01:45:13.591Z,10.90
2022-09-12T01:46:13.586Z,10.10
2022-09-12T01:47:13.569Z,12.70
2022-09-12T01:48:13.569Z,19.80
2022-09-12T01:49:13.556Z,12.80
2022-09-12T01:50:13.571Z,13.10
2022-09-12T01:51:13.540Z,10.00
2022-09-12T01:52:13.537Z,20.70
2022-09-12T01:53:13.547Z,34.10
2022-09-12T01:54:13.519Z,68.00
2022-09-12T01:55:13.508Z,175.20
2022-09-12T01:56:13.501Z,50.30
2022-09-12T01:57:13.490Z,11.40
2022-09-12T01:58:13.488Z,25.50
2022-09-12T01:59:13.490Z,15.30
2022-09-12T02:00:13.470Z,15.40
2022-09-12T02:01:13.487Z,52.90
2022-09-12T02:02:13.502Z,31.60
2022-09-12T02:03:13.448Z,27.70
2022-09-12T02:04:13.444Z,20.50
2022-09-12T02:05:13.439Z,56.20
2022-09-12T02:06:13.439Z,87.90
2022-09-12T02:07:13.436Z,91.40
2022-09-12T02:08:13.411Z,45.60
2022-09-12T02:09:13.390Z,31.20
2022-09-12T02:10:13.393Z,55.20
2022-09-12T02:11:13.389Z,59.30
2022-09-12T02:12:13.399Z,69.90
2022-09-12T02:13:13.364Z,88.50
2022-09-12T02:14:13.365Z,170.40
2022-09-12T02:15:13.374Z,50.30
2022-09-12T02:16:13.410Z,433.70
2022-09-12T02:17:13.337Z,494.70
2022-09-12T02:18:13.331Z,766.30
2022-09-12T02:19:13.318Z,530.80
2022-09-12T02:20:21.364Z,476.20
2022-09-12T02:21:14.305Z,227.30
2022-09-12T02:22:13.295Z,181.00
2022-09-12T02:23:13.291Z,545.40
2022-09-12T02:24:13.301Z,643.40
2022-09-12T02:25:13.269Z,367.90
2022-09-12T02:26:13.262Z,176.30
2022-09-12T02:27:13.255Z,803.90
2022-09-12T02:28:13.249Z,772.30
2022-09-12T02:29:13.259Z,347.90
2022-09-12T02:30:13.234Z,308.40
2022-09-12T02:31:13.240Z,75.10
2022-09-12T02:32:13.215Z,80.10
2022-09-12T02:33:13.240Z,642.20
2022-09-12T02:34:13.210Z,538.90
2022-09-12T02:35:13.195Z,369.10
2022-09-12T02:36:13.189Z,361.40
2022-09-12T02:37:13.202Z,505.50
2022-09-12T02:38:13.172Z,525.50
2022-09-12T02:39:13.169Z,562.10
2022-09-12T02:40:13.209Z,214.30
2022-09-12T02:41:13.149Z,94.70
2022-09-12T02:42:13.146Z,35.50
2022-09-12T02:43:13.148Z,246.60
2022-09-12T02:44:13.122Z,483.00
2022-09-12T02:45:13.116Z,422.30
2022-09-12T02:46:13.102Z,431.90
2022-09-12T02:47:13.091Z,465.70
2022-09-12T02:48:13.631Z,260.70
2022-09-12T02:49:13.087Z,535.40
2022-09-12T02:50:13.084Z,44.80
2022-09-12T02:51:13.071Z,39.30
2022-09-12T02:52:13.090Z,49.70
2022-09-12T02:53:13.052Z,30.70
2022-09-12T02:54:13.041Z,25.40
2022-09-12T02:55:13.037Z,74.30
2022-09-12T02:56:13.030Z,21.40
2022-09-12T02:57:13.029Z,177.60
2022-09-12T02:58:13.033Z,144.50
2022-09-12T02:59:13.024Z,238.50
2022-09-12T03:00:13.024Z,122.70
2022-09-12T03:01:12.999Z,30.50
2022-09-12T03:02:13.042Z,74.60
2022-09-12T03:03:12.983Z,294.00
2022-09-12T03:04:12.974Z,797.00
2022-09-12T03:05:12.998Z,550.80
2022-09-12T03:06:12.969Z,531.30
2022-09-12T03:07:12.956Z,137.30
2022-09-12T03:08:12.956Z,94.90
2022-09-12T03:09:12.935Z,565.90
2022-09-12T03:10:12.931Z,540.40
2022-09-12T03:11:12.943Z,584.70
2022-09-12T03:12:12.919Z,55.30
2022-09-12T03:13:12.931Z,143.70
2022-09-12T03:14:12.908Z,53.20
2022-09-12T03:15:12.899Z,61.20
2022-09-12T03:16:12.970Z,47.40
2022-09-12T03:17:12.880Z,59.80
2022-09-12T03:18:12.871Z,67.50
2022-09-12T03:19:12.869Z,64.60
2022-09-12T03:20:12.883Z,28.00
2022-09-12T03:21:12.849Z,284.20
2022-09-12T03:22:12.846Z,189.20
2022-09-12T03:23:12.836Z,604.90
2022-09-12T03:24:12.858Z,426.70
2022-09-12T03:25:12.816Z,444.00
2022-09-12T03:26:12.811Z,50.00
2022-09-12T03:27:12.809Z,237.70
2022-09-12T03:28:12.807Z,511.70
2022-09-12T03:29:12.808Z,276.00
2022-09-12T03:30:19.814Z,530.40
2022-09-12T03:31:12.773Z,84.80
2022-09-12T03:32:12.767Z,92.50
2022-09-12T03:33:12.768Z,68.10
2022-09-12T03:34:12.785Z,44.60
2022-09-12T03:35:12.743Z,60.30
2022-09-12T03:36:12.743Z,13.70
2022-09-12T03:37:12.730Z,23.40
2022-09-12T03:38:12.728Z,12.50
2022-09-12T03:39:12.714Z,16.90
2022-09-12T03:40:12.778Z,10.20
2022-09-12T03:41:12.719Z,19.40
2022-09-12T03:42:12.698Z,14.60
2022-09-12T03:43:12.696Z,20.00
2022-09-12T03:44:12.671Z,571.30
2022-09-12T03:45:12.669Z,82.40
2022-09-12T03:46:12.661Z,31.50
2022-09-12T03:47:12.670Z,44.40
2022-09-12T03:48:12.648Z,20.40
2022-09-12T03:49:12.657Z,125.70
2022-09-12T03:50:12.635Z,502.10
2022-09-12T03:51:12.647Z,776.20
2022-09-12T03:52:12.624Z,161.60
2022-09-12T03:53:16.930Z,143.70
2022-09-12T03:54:12.604Z,86.80
2022-09-12T03:55:12.596Z,18.40
2022-09-12T03:56:12.592Z,49.00
2022-09-12T03:57:12.601Z,145.90
2022-09-12T03:58:12.573Z,45.80
2022-09-12T03:59:12.561Z,117.40
2022-09-12T04:00:16.395Z,244.00
2022-09-12T04:01:12.678Z,1185.80
2022-09-12T04:02:12.586Z,857.80
2022-09-12T04:03:12.531Z,224.70
2022-09-12T04:04:12.525Z,97.60
2022-09-12T04:05:12.544Z,59.10
2022-09-12T04:06:12.511Z,80.00
2022-09-12T04:07:12.498Z,116.40
2022-09-12T04:08:12.502Z,166.00
2022-09-12T04:09:12.489Z,32.20
2022-09-12T04:10:12.483Z,68.80
2022-09-12T04:11:12.483Z,269.50
2022-09-12T04:12:12.470Z,311.80
2022-09-12T04:13:12.458Z,167.70
2022-09-12T04:14:12.455Z,138.50
2022-09-12T04:15:12.456Z,130.60
2022-09-12T04:16:12.520Z,528.20
2022-09-12T04:17:12.451Z,554.40
2022-09-12T04:18:12.424Z,24.00
2022-09-12T04:19:12.418Z,430.60
2022-09-12T04:20:12.409Z,1002.80
2022-09-12T04:21:12.395Z,612.60
2022-09-12T04:22:12.408Z,1028.20
2022-09-12T04:23:12.386Z,451.90
2022-09-12T04:24:12.395Z,397.70
2022-09-12T04:25:12.364Z,526.60
2022-09-12T04:26:12.358Z,664.00
2022-09-12T04:27:12.383Z,729.70
2022-09-12T04:28:12.349Z,732.60
2022-09-12T04:29:12.342Z,335.90
2022-09-12T04:30:12.342Z,70.50
2022-09-12T04:31:12.327Z,67.50
2022-09-12T04:32:12.316Z,45.20
2022-09-12T04:33:12.333Z,467.10
2022-09-12T04:34:12.305Z,141.10
2022-09-12T04:35:12.292Z,61.70
2022-09-12T04:36:12.315Z,75.80
2022-09-12T04:37:12.283Z,877.20
2022-09-12T04:38:12.269Z,109.40
2022-09-12T04:39:12.258Z,112.50
2022-09-12T04:40:12.279Z,114.20
2022-09-12T04:41:12.253Z,76.20
2022-09-12T04:42:12.266Z,39.60
2022-09-12T04:43:14.486Z,222.00
2022-09-12T04:44:12.239Z,100.30
2022-09-12T04:45:12.223Z,40.10
2022-09-12T04:46:12.283Z,477.20
2022-09-12T04:47:12.215Z,112.10
2022-09-12T04:48:12.199Z,208.90
2022-09-12T04:49:12.190Z,487.40
2022-09-12T04:50:12.179Z,342.60
2022-09-12T04:51:12.175Z,268.10
2022-09-12T04:52:12.182Z,169.20
2022-09-12T04:53:12.165Z,151.60
2022-09-12T04:54:12.165Z,582.90
2022-09-12T04:55:12.142Z,240.80
2022-09-12T04:56:12.142Z,593.10
2022-09-12T04:57:12.154Z,671.90
2022-09-12T04:58:12.125Z,308.10
2022-09-12T04:59:12.123Z,66.00
2022-09-12T05:00:12.109Z,23.50
2022-09-12T05:01:12.161Z,36.30
2022-09-12T05:02:12.142Z,63.20
2022-09-12T05:03:12.080Z,454.40
2022-09-12T05:04:12.080Z,1074.60
2022-09-12T05:05:12.071Z,1139.90
2022-09-12T05:06:12.067Z,438.70
2022-09-12T05:07:12.072Z,343.20
2022-09-12T05:08:12.041Z,46.50
2022-09-12T05:09:12.038Z,93.90
2022-09-12T05:10:12.021Z,129.20
2022-09-12T05:11:12.037Z,86.00
2022-09-12T05:12:12.028Z,78.00
2022-09-12T05:13:12.002Z,158.00
2022-09-12T05:14:12.195Z,42.10
2022-09-12T05:15:11.987Z,121.50
2022-09-12T05:16:12.023Z,86.20
2022-09-12T05:17:11.962Z,56.70
2022-09-12T05:18:11.958Z,445.10
2022-09-12T05:19:11.941Z,68.90
2022-09-12T05:20:11.964Z,87.10
2022-09-12T05:21:11.930Z,205.90
2022-09-12T05:22:11.932Z,79.70
2022-09-12T05:23:11.911Z,258.80
2022-09-12T05:24:11.901Z,564.60
2022-09-12T05:25:11.900Z,389.00
2022-09-12T05:26:11.928Z,453.40
2022-09-12T05:27:11.903Z,231.20
2022-09-12T05:28:11.881Z,24.30
2022-09-12T05:29:11.866Z,38.00
2022-09-12T05:30:11.878Z,38.50
2022-09-12T05:31:11.847Z,42.00
2022-09-12T05:32:11.977Z,27.10
2022-09-12T05:33:11.846Z,148.10
2022-09-12T05:34:11.839Z,80.50
2022-09-12T05:35:11.833Z,51.30
2022-09-12T05:36:11.836Z,90.70
2022-09-12T05:37:11.798Z,215.60
2022-09-12T05:38:11.793Z,104.20
2022-09-12T05:39:11.828Z,138.70
2022-09-12T05:40:11.830Z,461.80
2022-09-12T05:41:16.951Z,767.10
2022-09-12T05:42:12.766Z,659.40
2022-09-12T05:43:11.783Z,741.60
2022-09-12T05:44:11.753Z,567.60
2022-09-12T05:45:11.739Z,508.50
2022-09-12T05:46:11.755Z,100.80
2022-09-12T05:47:11.715Z,586.50
2022-09-12T05:48:11.717Z,366.30
2022-09-12T05:49:11.722Z,50.70
2022-09-12T05:50:11.710Z,72.20
2022-09-12T05:51:11.679Z,21.70
2022-09-12T05:52:11.704Z,26.00
2022-09-12T05:53:11.672Z,108.50
2022-09-12T05:54:11.663Z,194.10
2022-09-12T05:55:11.681Z,138.60
2022-09-12T05:56:11.660Z,116.20
2022-09-12T05:57:11.641Z,480.10
2022-09-12T05:58:11.646Z,107.10
2022-09-12T05:59:11.618Z,461.10
2022-09-12T06:00:11.625Z,61.80
2022-09-12T06:01:11.690Z,54.60
2022-09-12T06:02:11.658Z,108.60
2022-09-12T06:03:11.598Z,43.90
2022-09-12T06:04:11.588Z,811.60
2022-09-12T06:05:11.613Z,442.30
2022-09-12T06:06:11.576Z,623.10
2022-09-12T06:07:11.580Z,841.20
2022-09-12T06:08:11.657Z,856.80
2022-09-12T06:09:11.626Z,520.50
2022-09-12T06:10:11.617Z,745.80
2022-09-12T06:11:11.621Z,878.00
2022-09-12T06:12:11.580Z,606.20
2022-09-12T06:13:11.560Z,216.50
2022-09-12T06:14:11.575Z,29.40
2022-09-12T06:15:11.529Z,238.70
2022-09-12T06:16:11.548Z,305.90
2022-09-12T06:17:11.516Z,76.30
2022-09-12T06:18:11.508Z,88.60
2022-09-12T06:19:11.509Z,85.30
2022-09-12T06:20:11.501Z,180.80
2022-09-12T06:21:11.500Z,89.50
2022-09-12T06:22:11.476Z,123.90
2022-09-12T06:23:11.456Z,47.40
2022-09-12T06:24:11.485Z,108.30
2022-09-12T06:25:11.484Z,124.40
2022-09-12T06:26:11.445Z,269.80
2022-09-12T06:27:11.437Z,593.60
2022-09-12T06:28:11.431Z,487.70
2022-09-12T06:29:11.422Z,532.00
2022-09-12T06:30:11.413Z,47.90
2022-09-12T06:31:11.482Z,944.00
2022-09-12T06:32:11.398Z,563.30
2022-09-12T06:33:11.384Z,182.20
2022-09-12T06:34:11.404Z,381.70
2022-09-12T06:35:11.375Z,653.70
2022-09-12T06:36:12.550Z,236.20
2022-09-12T06:37:11.382Z,538.90
2022-09-12T06:38:11.363Z,1348.50
2022-09-12T06:39:11.346Z,562.10
2022-09-12T06:40:11.388Z,49.50
2022-09-12T06:41:11.352Z,98.00
2022-09-12T06:42:11.328Z,277.30
2022-09-12T06:43:11.341Z,488.90
2022-09-12T06:44:11.343Z,574.00
2022-09-12T06:45:11.323Z,186.00
2022-09-12T06:46:11.365Z,531.60
2022-09-12T06:47:11.299Z,299.20
2022-09-12T06:48:11.290Z,207.50
2022-09-12T06:49:11.301Z,1104.40
2022-09-12T06:50:11.309Z,807.60
2022-09-12T06:51:11.281Z,454.60
2022-09-12T06:52:11.270Z,336.40
2022-09-12T06:53:11.287Z,504.50
2022-09-12T06:54:11.255Z,16.70
2022-09-12T06:55:11.242Z,52.50
2022-09-12T06:56:11.235Z,338.60
2022-09-12T06:57:11.226Z,504.90
2022-09-12T06:58:11.227Z,45.30
2022-09-12T06:59:11.244Z,118.30
2022-09-12T07:00:11.203Z,432.70
2022-09-12T07:01:11.242Z,95.90
2022-09-12T07:02:11.235Z,432.50
2022-09-12T07:03:11.187Z,418.80
2022-09-12T07:04:11.188Z,416.20
2022-09-12T07:05:11.179Z,422.10
2022-09-12T07:06:11.170Z,428.00
2022-09-12T07:07:11.157Z,390.80
2022-09-12T07:08:11.152Z,170.60
2022-09-12T07:09:11.160Z,1048.90
2022-09-12T07:10:11.144Z,36.30
2022-09-12T07:11:11.123Z,36.50
2022-09-12T07:12:11.139Z,466.70
2022-09-12T07:13:11.110Z,24.40
2022-09-12T07:14:11.098Z,50.70
2022-09-12T07:15:11.107Z,198.30
2022-09-12T07:16:12.295Z,460.50
2022-09-12T07:17:11.172Z,279.50
2022-09-12T07:18:11.072Z,102.10
2022-09-12T07:19:11.074Z,36.90
2022-09-12T07:20:11.074Z,30.30
2022-09-12T07:21:11.046Z,167.20
2022-09-12T07:22:11.058Z,58.60
2022-09-12T07:23:11.033Z,19.30
2022-09-12T07:24:11.204Z,19.00
2022-09-12T07:25:11.029Z,27.60
2022-09-12T07:26:11.011Z,130.80
2022-09-12T07:27:11.017Z,20.30
2022-09-12T07:28:10.999Z,26.00
2022-09-12T07:29:36.602Z,22.90
2022-09-12T07:30:11.987Z,31.00
2022-09-12T07:31:11.034Z,36.20
2022-09-12T07:32:10.991Z,29.20
2022-09-12T07:33:10.951Z,26.20
2022-09-12T07:34:10.952Z,25.90
2022-09-12T07:35:10.953Z,35.00
2022-09-12T07:36:10.945Z,34.40
2022-09-12T07:37:10.950Z,23.10
2022-09-12T07:38:11.038Z,30.30
2022-09-12T07:39:10.906Z,34.40
2022-09-12T07:40:10.967Z,35.70
2022-09-12T07:41:10.896Z,218.90
2022-09-12T07:42:10.884Z,332.60
2022-09-12T07:43:10.880Z,251.70
2022-09-12T07:44:10.894Z,46.70
2022-09-12T07:45:10.869Z,368.30
2022-09-12T07:46:10.880Z,85.20
2022-09-12T07:47:10.848Z,35.60
2022-09-12T07:48:10.840Z,40.30
2022-09-12T07:49:10.827Z,90.20
2022-09-12T07:50:10.833Z,30.70
2022-09-12T07:51:10.827Z,600.10
2022-09-12T07:52:10.802Z,41.90
2022-09-12T07:53:10.797Z,32.80
2022-09-12T07:54:10.793Z,147.30
2022-09-12T07:55:10.799Z,459.20
2022-09-12T07:56:10.785Z,69.20
2022-09-12T07:57:10.754Z,204.90
2022-09-12T07:58:10.777Z,90.10
2022-09-12T07:59:10.766Z,24.50
2022-09-12T08:00:10.735Z,21.20
2022-09-12T08:01:10.763Z,20.90
2022-09-12T08:02:16.071Z,121.20
2022-09-12T08:03:11.733Z,212.50
2022-09-12T08:04:10.731Z,442.60
2022-09-12T08:05:10.705Z,187.50
2022-09-12T08:06:10.695Z,59.50
2022-09-12T08:07:10.695Z,72.70
2022-09-12T08:08:10.691Z,27.10
2022-09-12T08:09:10.678Z,26.30
2022-09-12T08:10:10.683Z,22.60
2022-09-12T08:11:10.658Z,20.70
2022-09-12T08:12:10.683Z,21.50
2022-09-12T08:13:10.960Z,21.10
2022-09-12T08:14:10.636Z,23.90
2022-09-12T08:15:10.621Z,24.40
2022-09-12T08:16:10.667Z,25.00
2022-09-12T08:17:10.616Z,23.30
2022-09-12T08:18:10.646Z,23.80
2022-09-12T08:19:10.591Z,20.40
2022-09-12T08:20:10.598Z,23.20
2022-09-12T08:21:10.582Z,21.70
2022-09-12T08:22:10.570Z,25.50
2022-09-12T08:23:10.559Z,25.20
2022-09-12T08:24:10.577Z,24.30
2022-09-12T08:25:10.536Z,29.90
2022-09-12T08:26:10.566Z,23.30
2022-09-12T08:27:10.532Z,24.60
2022-09-12T08:28:10.514Z,23.50
2022-09-12T08:29:10.530Z,23.90
2022-09-12T08:30:10.506Z,22.30
2022-09-12T08:31:10.547Z,21.20
2022-09-12T08:32:10.529Z,22.20
2022-09-12T08:33:10.482Z,21.40
2022-09-12T08:34:10.480Z,22.70
2022-09-12T08:35:10.490Z,22.10
2022-09-12T08:36:10.489Z,21.90
2022-09-12T08:37:10.456Z,21.30
2022-09-12T08:38:10.456Z,25.00
2022-09-12T08:39:10.434Z,21.50
2022-09-12T08:40:10.509Z,30.50
2022-09-12T08:41:10.422Z,32.40
2022-09-12T08:43:10.422Z,38.90
2022-09-12T08:44:10.400Z,30.70
2022-09-12T08:45:10.395Z,30.30
2022-09-12T08:46:10.451Z,32.20
2022-09-12T08:47:10.397Z,29.40
2022-09-12T08:48:10.372Z,29.10
2022-09-12T08:49:10.358Z,26.60
2022-09-12T08:50:10.371Z,23.70
2022-09-12T08:51:10.345Z,24.40
2022-09-12T08:52:10.363Z,22.90
2022-09-12T08:53:10.336Z,21.40
2022-09-12T08:54:10.325Z,20.30
2022-09-12T08:55:10.317Z,22.70
2022-09-12T08:56:10.303Z,19.40
2022-09-12T08:57:10.344Z,19.10
2022-09-12T08:58:10.284Z,22.60
2022-09-12T08:59:10.274Z,20.00
2022-09-12T09:00:10.276Z,17.80
2022-09-12T09:01:10.345Z,18.80
2022-09-12T09:02:10.315Z,18.30
2022-09-12T09:03:10.269Z,20.30
2022-09-12T09:04:10.245Z,16.50
2022-09-12T09:05:10.243Z,18.30
2022-09-12T09:06:10.224Z,17.60
2022-09-12T09:07:10.215Z,17.50
2022-09-12T09:08:10.217Z,19.80
2022-09-12T09:09:10.211Z,17.50
2022-09-12T09:10:10.194Z,16.60
2022-09-12T09:11:10.197Z,18.00
2022-09-12T09:12:10.172Z,17.00
2022-09-12T09:13:10.164Z,18.70
2022-09-12T09:14:10.183Z,19.50
2022-09-12T09:15:10.184Z,17.00
2022-09-12T09:16:10.197Z,16.90
2022-09-12T09:17:10.129Z,15.60
2022-09-12T09:18:10.120Z,15.60
2022-09-12T09:19:10.109Z,16.30
2022-09-12T09:20:10.107Z,15.60
2022-09-12T09:21:10.116Z,16.50
2022-09-12T09:22:10.081Z,15.40
2022-09-12T09:23:10.070Z,16.10
2022-09-12T09:24:10.082Z,15.60
2022-09-12T09:25:10.059Z,17.00
2022-09-12T09:26:10.061Z,15.70
2022-09-12T09:27:29.940Z,14.30
2022-09-12T09:28:11.052Z,15.40
2022-09-12T09:29:10.035Z,13.00
2022-09-12T09:30:10.025Z,14.60
2022-09-12T09:31:17.121Z,12.50
2022-09-12T09:32:10.005Z,13.10
2022-09-12T09:33:10.009Z,14.70
2022-09-12T09:34:09.986Z,14.60
2022-09-12T09:35:09.976Z,12.10
2022-09-12T09:36:09.971Z,13.40
2022-09-12T09:37:09.963Z,11.70
2022-09-12T09:38:09.955Z,11.60
2022-09-12T09:39:09.970Z,12.60
2022-09-12T09:40:09.972Z,12.10
2022-09-12T09:41:09.927Z,12.80
2022-09-12T09:42:09.921Z,12.60
2022-09-12T09:43:09.925Z,12.20
2022-09-12T09:44:09.912Z,12.10
2022-09-12T09:45:09.900Z,13.00
2022-09-12T09:46:09.963Z,14.70
2022-09-12T09:47:09.895Z,12.10
2022-09-12T09:48:09.869Z,10.70
2022-09-12T09:49:09.885Z,10.00
2022-09-12T09:50:09.859Z,9.30
2022-09-12T09:51:09.860Z,10.50
2022-09-12T09:52:09.871Z,12.20
2022-09-12T09:53:09.826Z,12.50
2022-09-12T09:54:09.835Z,12.20
2022-09-12T09:55:09.805Z,12.20
2022-09-12T09:56:09.823Z,12.30
2022-09-12T09:57:09.784Z,11.60
2022-09-12T09:58:09.797Z,10.50
2022-09-12T09:59:09.822Z,9.70
2022-09-12T10:00:09.785Z,11.50
2022-09-12T10:01:09.822Z,10.40
2022-09-12T10:02:09.818Z,9.40
2022-09-12T10:03:13.394Z,8.60
2022-09-12T10:04:09.744Z,11.40
2022-09-12T10:05:09.762Z,10.40
2022-09-12T10:06:09.751Z,12.70
2022-09-12T10:07:09.722Z,13.40
2022-09-12T10:08:09.714Z,10.30
2022-09-12T10:09:09.707Z,11.40
2022-09-12T10:10:09.718Z,9.80
2022-09-12T10:11:09.683Z,9.30
2022-09-12T10:12:09.689Z,7.60
2022-09-12T10:13:09.676Z,7.70
2022-09-12T10:14:09.677Z,8.00
2022-09-12T10:15:09.659Z,8.40
2022-09-12T10:16:09.802Z,9.30
2022-09-12T10:17:09.646Z,8.80
2022-09-12T10:18:09.647Z,6.70
2022-09-12T10:19:09.632Z,7.10
2022-09-12T10:20:20.935Z,7.80
2022-09-12T10:21:10.636Z,6.60
2022-09-12T10:22:09.633Z,8.70
2022-09-12T10:23:09.612Z,7.00
2022-09-12T10:24:09.604Z,7.00
2022-09-12T10:25:09.592Z,7.10
2022-09-12T10:26:09.592Z,7.00
2022-09-12T10:27:09.608Z,7.70
2022-09-12T10:28:09.569Z,8.10
2022-09-12T10:29:09.561Z,6.20
2022-09-12T10:30:09.554Z,6.30
2022-09-12T10:31:09.572Z,7.10
2022-09-12T10:32:09.535Z,7.70
2022-09-12T10:33:09.546Z,6.20
2022-09-12T10:34:09.526Z,5.40
2022-09-12T10:35:09.524Z,6.50
2022-09-12T10:36:09.511Z,6.70
2022-09-12T10:37:09.500Z,5.90
2022-09-12T10:38:09.499Z,5.90
2022-09-12T10:39:09.505Z,6.30
2022-09-12T10:40:09.577Z,7.40
2022-09-12T10:41:09.471Z,7.00
2022-09-12T10:42:09.457Z,6.80
2022-09-12T10:43:09.479Z,9.40
2022-09-12T10:44:09.475Z,8.60
2022-09-12T10:45:09.439Z,7.30
2022-09-12T10:46:09.487Z,6.90
2022-09-12T10:47:09.439Z,6.90
2022-09-12T10:48:09.418Z,6.90
2022-09-12T10:49:09.414Z,6.50
2022-09-12T10:50:09.445Z,6.30
2022-09-12T10:51:09.407Z,6.70
2022-09-12T10:52:09.424Z,6.50
2022-09-12T10:53:09.387Z,6.50
2022-09-12T10:54:09.382Z,7.70
2022-09-12T10:55:09.391Z,9.30
2022-09-12T10:56:09.361Z,8.70
2022-09-12T10:57:09.357Z,6.90
2022-09-12T10:58:09.348Z,8.90
2022-09-12T10:59:09.337Z,6.10
2022-09-12T11:00:09.354Z,8.60
2022-09-12T11:01:09.393Z,6.50
2022-09-12T11:02:09.394Z,6.90
2022-09-12T11:03:09.309Z,6.60
2022-09-12T11:04:09.304Z,7.90
2022-09-12T11:05:09.296Z,8.20
2022-09-12T11:06:09.303Z,6.80
2022-09-12T11:07:09.287Z,6.80
2022-09-12T11:08:09.278Z,6.60
2022-09-12T11:09:09.274Z,5.80
2022-09-12T11:10:09.262Z,6.50
2022-09-12T11:11:09.270Z,6.40
2022-09-12T11:12:09.254Z,7.40
2022-09-12T11:13:09.232Z,7.00
2022-09-12T11:14:09.227Z,7.30
2022-09-12T11:15:09.235Z,7.20
2022-09-12T11:16:09.275Z,7.60
2022-09-12T11:17:13.271Z,6.80
2022-09-12T11:18:09.207Z,7.60
2022-09-12T11:19:09.213Z,7.60
2022-09-12T11:20:09.202Z,8.80
2022-09-12T11:21:09.206Z,9.10
2022-09-12T11:22:09.197Z,8.40
2022-09-12T11:23:09.175Z,10.40
2022-09-12T11:24:09.178Z,7.80
2022-09-12T11:25:09.152Z,8.20
2022-09-12T11:26:09.155Z,7.70
2022-09-12T11:27:09.174Z,6.70
2022-09-12T11:28:09.159Z,7.50
2022-09-12T11:29:09.129Z,6.80
2022-09-12T11:30:09.143Z,9.70
2022-09-12T11:31:09.148Z,12.50
2022-09-12T11:32:09.108Z,12.10
2022-09-12T11:33:09.099Z,11.50
2022-09-12T11:34:09.121Z,12.60
2022-09-12T11:35:09.496Z,10.80
2022-09-12T11:36:09.074Z,10.30
2022-09-12T11:37:11.013Z,11.30
2022-09-12T11:38:09.059Z,10.50
2022-09-12T11:39:09.051Z,11.90
2022-09-12T11:40:09.100Z,8.60
2022-09-12T11:41:09.044Z,10.70
2022-09-12T11:42:09.028Z,9.70
2022-09-12T11:43:09.031Z,9.70
2022-09-12T11:44:09.026Z,9.40
2022-09-12T11:45:09.026Z,9.00
2022-09-12T11:46:09.043Z,10.00
2022-09-12T11:47:08.994Z,7.50
2022-09-12T11:48:08.989Z,9.10
2022-09-12T11:49:08.990Z,8.10
2022-09-12T11:50:09.014Z,9.00
2022-09-12T11:51:08.972Z,8.20
2022-09-12T11:52:08.966Z,8.80
2022-09-12T11:53:08.953Z,9.10
2022-09-12T11:54:08.961Z,7.20
2022-09-12T11:55:08.958Z,7.00
2022-09-12T11:56:08.940Z,9.30
2022-09-12T11:57:08.924Z,8.60
2022-09-12T11:58:08.920Z,8.70
2022-09-12T11:59:08.908Z,8.90
2022-09-12T12:00:08.941Z,8.30
2022-09-12T12:01:08.891Z,8.50
2022-09-12T12:02:08.944Z,8.00
2022-09-12T12:03:08.930Z,8.80
2022-09-12T12:04:08.883Z,7.10
2022-09-12T12:05:08.884Z,7.90
2022-09-12T12:06:08.885Z,6.90
2022-09-12T12:07:08.860Z,7.90
2022-09-12T12:08:08.850Z,8.30
2022-09-12T12:09:08.840Z,7.50
2022-09-12T12:10:08.865Z,7.50
2022-09-12T12:11:08.821Z,7.50
2022-09-12T12:12:08.819Z,8.40
2022-09-12T12:13:13.853Z,7.20
2022-09-12T12:14:09.812Z,7.60
2022-09-12T12:15:08.805Z,6.40
2022-09-12T12:16:08.841Z,7.50
2022-09-12T12:17:08.782Z,8.10
2022-09-12T12:18:08.785Z,8.00
2022-09-12T12:19:10.685Z,7.40
2022-09-12T12:20:08.929Z,6.50
2022-09-12T12:21:08.770Z,6.50
2022-09-12T12:22:08.765Z,6.30
2022-09-12T12:23:08.761Z,7.00
2022-09-12T12:24:08.740Z,8.10
2022-09-12T12:25:08.728Z,6.20
2022-09-12T12:26:08.728Z,7.80
2022-09-12T12:27:08.735Z,7.30
2022-09-12T12:28:08.726Z,9.80
2022-09-12T12:29:08.705Z,7.20
2022-09-12T12:30:08.722Z,7.20
2022-09-12T12:31:08.757Z,9.00
2022-09-12T12:32:08.702Z,7.10
2022-09-12T12:33:08.671Z,8.90
2022-09-12T12:34:08.696Z,9.30
2022-09-12T12:35:08.675Z,7.30
2022-09-12T12:36:08.645Z,7.20
2022-09-12T12:37:08.657Z,7.70
2022-09-12T12:38:08.633Z,8.00
2022-09-12T12:39:08.622Z,7.70
2022-09-12T12:40:08.733Z,7.10
2022-09-12T12:41:08.605Z,8.00
2022-09-12T12:42:08.622Z,9.00
2022-09-12T12:43:08.598Z,8.20
2022-09-12T12:44:08.602Z,7.10
2022-09-12T12:45:08.595Z,6.30
2022-09-12T12:46:08.619Z,7.80
2022-09-12T12:47:08.567Z,7.10
2022-09-12T12:48:08.564Z,8.40
2022-09-12T12:49:08.591Z,9.00
2022-09-12T12:50:08.588Z,7.20
2022-09-12T12:51:08.542Z,9.40